Latest Weather Observations for Wynyard

IDT60801

Issued at 7:32 am EST Saturday 18 August 2018 (issued every 10 minutes, with the page automatically refreshed every 10 minutes)

About weather observations | Map of weather stations | Latest weather observations for TAS | Other Formats
Station Details ID: 091107 Name: WYNYARD AIRPORT Lat: -41.00 Lon: 145.73 Height: 12.0 m
Data from the previous 72 hours. | See also: Recent months at Wynyard
Date/Time
EST
Temp
°C
App
Temp
°C
Dew
Point
°C
Rel
Hum
%
Delta-T
°C
Wind Press
QNH
hPa
Press
MSL
hPa
Rain since
9am
mm
Dir  Spd
km/h
Gust
km/h
Spd
kts
Gust
kts
18/07:30am 4.1 1.3 3.2 94 0.4 W 7 9 4 5 1001.8 1001.9 15.8
18/07:00am 4.2 1.6 3.3 94 0.4 WNW 6 7 3 4 1001.5 1001.5 15.8
18/06:30am 3.6 -0.4 2.6 93 0.4 W 13 15 7 8 1001.2 1001.2 15.8
18/06:00am 3.9 0.2 2.4 90 0.6 W 11 13 6 7 1001.0 1001.0 15.8
18/05:30am 5.5 2.7 3.3 86 0.9 W 7 11 4 6 1000.8 1000.8 15.8
18/05:00am 6.5 2.7 4.0 84 1.1 W 13 17 7 9 1000.7 1000.7 15.8
18/04:30am 7.2 3.0 5.7 90 0.7 WSW 17 32 9 17 1000.7 1000.7 15.8
18/04:00am 6.6 3.3 4.6 87 0.9 W 11 17 6 9 1000.1 1000.1 15.8
18/03:30am 7.5 2.9 5.5 87 0.9 W 19 24 10 13 999.9 999.9 15.8
18/03:00am 8.1 3.2 6.7 91 0.7 W 22 32 12 17 999.9 999.9 15.8
18/02:30am 8.3 4.4 6.9 91 0.7 WNW 17 20 9 11 1000.0 1000.0 15.8
18/02:00am 8.5 4.6 7.0 90 0.7 WNW 17 22 9 12 1000.0 1000.0 15.6
18/01:30am 8.6 4.7 6.9 89 0.8 W 17 20 9 11 999.5 999.5 15.2
18/01:00am 9.0 3.9 7.5 90 0.7 W 24 32 13 17 999.5 999.5 15.2
18/12:30am 9.6 4.2 8.0 90 0.8 WNW 26 33 14 18 999.6 999.6 15.0
18/12:00am 10.1 5.6 8.5 90 0.8 NW 22 33 12 18 999.6 999.6 14.6
 
Date/Time
EST
Temp
°C
App
Temp
°C
Dew
Point
°C
Rel
Hum
%
Delta-T
°C
Wind Press
QNH
hPa
Press
MSL
hPa
Rain since
9am
mm
Dir  Spd
km/h
Gust
km/h
Spd
kts
Gust
kts
17/11:43pm 10.1 4.4 8.4 89 0.8 NW 28 48 15 26 999.8 999.8 13.4
17/11:41pm 10.1 4.8 8.4 89 0.8 NW 26 39 14 21 999.9 999.9 13.4
17/11:30pm 10.1 5.2 8.5 90 0.8 NW 24 43 13 23 1000.2 1000.2 13.2
17/11:26pm 10.1 5.6 8.5 90 0.8 NW 22 32 12 17 1000.3 1000.3 13.2
17/11:08pm 10.4 4.7 8.5 88 0.9 NW 28 46 15 25 1000.4 1000.4 12.0
17/11:04pm 10.5 4.5 8.6 88 0.9 NW 30 46 16 25 1000.5 1000.5 12.0
17/11:03pm 10.5 4.9 8.6 88 0.9 NW 28 46 15 25 1000.6 1000.6 12.0
17/11:00pm 10.5 5.3 8.8 89 0.8 WNW 26 43 14 23 1000.6 1000.6 11.8
17/10:48pm 10.6 5.4 9.0 90 0.8 NW 26 43 14 23 1000.8 1000.8 11.8
17/10:35pm 10.6 4.6 8.7 88 0.9 NW 30 41 16 22 1001.0 1001.0 11.4
17/10:30pm 10.5 3.9 8.6 88 0.9 NW 33 46 18 25 1001.0 1001.0 11.2
17/10:28pm 10.5 3.9 8.4 87 1.0 NW 33 48 18 26 1001.1 1001.1 11.2
17/10:12pm 11.7 4.1 9.1 84 1.3 NNW 39 61 21 33 1000.9 1000.9 9.6
17/10:00pm 12.1 4.0 8.8 80 1.7 NNW 41 59 22 32 1000.7 1000.7 9.4
17/09:30pm 11.8 5.3 8.8 82 1.5 NNW 33 52 18 28 1001.1 1001.1 9.0
17/09:20pm 11.7 6.1 8.9 83 1.4 NNW 28 46 15 25 1001.3 1001.3 9.0
17/09:00pm 11.8 5.5 9.0 83 1.4 NNW 32 44 17 24 1002.0 1002.1 8.2
17/08:31pm 12.1 5.8 8.8 80 1.6 NNW 32 50 17 27 1002.2 1002.3 7.2
17/08:30pm 12.1 5.8 8.8 80 1.6 NNW 32 44 17 24 1002.2 1002.3 7.2
17/08:15pm 12.1 6.5 8.8 80 1.6 NNW 28 46 15 25 1002.4 1002.5 7.2
17/08:00pm 11.9 6.3 8.7 81 1.6 NNW 28 41 15 22 1002.6 1002.7 7.2
17/07:30pm 11.6 6.5 9.2 85 1.2 NNW 26 41 14 22 1003.1 1003.2 6.8
17/07:13pm 11.5 5.6 9.1 85 1.2 NNW 30 48 16 26 1003.2 1003.3 6.8
17/07:00pm 11.6 5.6 8.8 83 1.4 NNW 30 39 16 21 1003.3 1003.4 6.8
17/06:30pm 11.8 5.4 8.5 80 1.6 NNW 32 44 17 24 1003.6 1003.7 6.8
17/06:00pm 11.1 7.1 9.2 88 1.0 NNW 20 33 11 18 1004.0 1004.1 6.8
17/05:32pm 10.8 5.8 9.6 92 0.6 NW 26 41 14 22 1004.3 1004.4 6.8
17/05:30pm 10.8 5.8 9.6 92 0.6 NW 26 41 14 22 1004.3 1004.4 6.8
17/05:13pm 11.0 5.5 9.1 88 0.9 NW 28 54 15 29 1004.3 1004.4 6.8
17/05:00pm 11.4 6.4 9.5 88 1.0 NNW 26 44 14 24 1004.2 1004.3 6.4
17/04:55pm 11.4 5.9 9.3 87 1.1 NNW 28 44 15 24 1004.2 1004.3 6.4
17/04:48pm 11.7 7.0 9.3 85 1.2 NNW 24 33 13 18 1004.2 1004.3 6.4
17/04:31pm 11.5 6.8 9.1 85 1.2 NW 24 37 13 20 1004.4 1004.5 6.4
17/04:30pm 11.6 6.4 9.0 84 1.3 NW 26 39 14 21 1004.4 1004.5 6.4
17/04:00pm 12.0 7.3 9.2 83 1.4 NW 24 37 13 20 1004.6 1004.7 6.4
17/03:30pm 12.9 8.0 9.9 82 1.5 NW 26 37 14 20 1004.9 1005.0 6.4
17/03:00pm 12.5 6.8 9.7 83 1.4 NW 30 39 16 21 1005.2 1005.3 6.4
17/02:36pm 12.0 6.9 9.2 83 1.4 NW 26 43 14 23 1005.2 1005.3 6.4
17/02:30pm 12.5 7.7 10.2 86 1.2 NW 26 43 14 23 1005.3 1005.4 6.4
17/02:25pm 12.0 7.5 10.2 89 0.9 NW 24 33 13 18 1005.3 1005.4 6.4
17/02:17pm 11.5 6.2 9.9 90 0.8 NW 28 41 15 22 1005.3 1005.4 6.4
17/02:00pm 10.8 4.6 9.2 90 0.8 NW 32 44 17 24 1005.4 1005.5 6.4
17/01:44pm 11.3 7.7 9.9 91 0.7 WNW 19 28 10 15 1005.6 1005.7 6.0
17/01:36pm 10.4 7.0 9.0 91 0.7 WNW 17 22 9 12 1005.6 1005.7 6.0
17/01:33pm 10.4 7.0 9.2 92 0.6 WNW 17 22 9 12 1005.7 1005.8 6.0
17/01:30pm 10.2 6.3 8.8 91 0.7 NW 19 22 10 12 1005.8 1005.9 6.0
17/01:12pm 10.2 6.3 8.8 91 0.7 W 19 32 10 17 1006.0 1006.1 5.0
17/01:10pm 10.4 7.0 9.0 91 0.7 W 17 22 9 12 1006.1 1006.2 5.0
17/01:00pm 10.5 6.7 8.9 90 0.8 WNW 19 24 10 13 1006.2 1006.3 4.0
17/12:50pm 10.5 6.5 8.9 90 0.8 WNW 20 30 11 16 1006.3 1006.4 3.8
17/12:35pm 11.0 7.7 9.6 91 0.7 WNW 17 22 9 12 1006.6 1006.7 2.4
17/12:30pm 11.1 7.8 9.7 91 0.7 WNW 17 22 9 12 1006.7 1006.8 2.4
17/12:19pm 11.0 8.5 9.8 92 0.6 WNW 13 19 7 10 1006.8 1006.9 2.2
17/12:00pm 10.8 6.9 9.6 92 0.6 NW 20 32 11 17 1007.2 1007.3 2.2
17/11:30am 10.5 7.0 8.9 90 0.8 NW 17 24 9 13 1007.7 1007.8 0.8
17/11:08am 11.2 9.0 9.3 88 1.0 N 11 26 6 14 1008.0 1008.1 0.2
17/11:00am 10.2 7.6 7.6 84 1.2 NE 11 15 6 8 1007.9 1008.0 0.0
17/10:30am 10.3 8.2 8.1 86 1.1 NNE 9 13 5 7 1008.2 1008.3 0.0
17/10:00am 9.6 9.0 9.0 96 0.3 WSW 2 7 1 4 1008.4 1008.5 0.0
17/09:47am 8.4 7.9 8.0 97 0.2 CALM 0 0 0 0 1008.6 1008.7 0.0
17/09:30am 7.4 6.3 7.0 97 0.2 W 2 7 1 4 1008.6 1008.7 0.0
17/09:29am 7.4 6.3 7.0 97 0.2 W 2 7 1 4 1008.7 1008.8 0.0
17/09:00am 6.6 5.4 6.3 98 0.1 WNW 2 7 1 4 1008.7 1008.8 0.2
17/08:30am 4.9 2.5 4.5 97 0.2 W 6 7 3 4 1009.0 1009.1 0.2
17/08:00am 3.9 0.8 3.5 97 0.2 WNW 9 13 5 7 1009.1 1009.2 0.2
17/07:37am 3.1 -0.2 2.7 97 0.2 WNW 9 13 5 7 1009.0 1009.1 0.2
17/07:30am 2.4 -1.4 1.8 96 0.2 WNW 11 13 6 7 1008.9 1009.0 0.2
17/07:21am 2.4 -1.0 1.8 96 0.2 WNW 9 13 5 7 1008.9 1009.0 0.2
17/07:00am 3.2 0.3 2.8 97 0.2 NW 7 9 4 5 1008.9 1009.0 0.2
17/06:30am 3.4 0.2 3.0 97 0.2 WNW 9 11 5 6 1008.8 1008.9 0.0
17/06:00am 2.7 -0.3 2.1 96 0.2 WSW 7 9 4 5 1008.6 1008.7 0.0
17/05:30am 3.4 0.5 2.8 96 0.2 SW 7 7 4 4 1008.7 1008.8 0.0
17/05:00am 3.5 0.7 2.9 96 0.2 NW 7 11 4 6 1008.8 1008.9 0.0
17/04:30am 3.2 0.5 2.6 96 0.2 WNW 6 7 3 4 1008.7 1008.8 0.0
17/04:00am 3.8 1.2 3.2 96 0.2 WNW 6 7 3 4 1008.7 1008.8 0.0
17/03:30am 3.6 0.8 3.0 96 0.2 WSW 7 11 4 6 1008.9 1009.0 0.0
17/03:00am 3.5 0.3 2.9 96 0.2 NW 9 11 5 6 1009.2 1009.3 0.0
17/02:30am 2.3 0.6 1.7 96 0.2 CALM 0 0 0 0 1009.3 1009.4 0.0
17/02:16am 2.3 -0.6 1.6 95 0.3 SW 6 11 3 6 1009.4 1009.5 0.0
17/02:00am 2.5 -0.9 1.8 95 0.3 W 9 9 5 5 1009.5 1009.6 0.0
17/01:50am 2.6 -0.4 1.9 95 0.3 WNW 7 9 4 5 1009.5 1009.6 0.0
17/01:30am 2.4 -0.6 1.7 95 0.3 WSW 7 9 4 5 1009.4 1009.5 0.0
17/01:11am 3.1 -0.2 2.4 95 0.3 WSW 9 11 5 6 1009.4 1009.5 0.0
17/01:00am 2.7 -0.3 1.8 94 0.4 WNW 7 9 4 5 1009.5 1009.6 0.0
17/12:49am 3.0 -0.4 2.1 94 0.4 NW 9 11 5 6 1009.6 1009.7 0.0
17/12:42am 3.3 0.0 2.4 94 0.4 WNW 9 11 5 6 1009.5 1009.6 0.0
17/12:30am 3.7 0.8 2.8 94 0.4 WNW 7 9 4 5 1009.5 1009.6 0.0
17/12:02am 3.8 0.6 2.8 93 0.4 NW 9 11 5 6 1009.5 1009.6 0.0
17/12:00am 3.8 0.6 2.8 93 0.4 NW 9 11 5 6 1009.5 1009.6 0.0
 
Date/Time
EST
Temp
°C
App
Temp
°C
Dew
Point
°C
Rel
Hum
%
Delta-T
°C
Wind Press
QNH
hPa
Press
MSL
hPa
Rain since
9am
mm
Dir  Spd
km/h
Gust
km/h
Spd
kts
Gust
kts
16/11:42pm 4.7 1.6 3.8 94 0.4 NW 9 11 5 6 1009.4 1009.5 0.0
16/11:30pm 4.0 0.8 3.0 93 0.4 NW 9 9 5 5 1009.5 1009.6 0.0
16/11:22pm 3.4 0.1 2.4 93 0.4 WNW 9 11 5 6 1009.6 1009.7 0.0
16/11:00pm 4.3 1.5 3.3 93 0.4 NW 7 11 4 6 1009.6 1009.7 0.0
16/10:30pm 4.5 1.7 3.3 92 0.5 WSW 7 9 4 5 1009.7 1009.8 0.0
16/10:00pm 5.5 2.9 4.3 92 0.5 SW 7 13 4 7 1010.0 1010.1 0.0
16/09:30pm 4.1 0.5 2.8 91 0.5 W 11 13 6 7 1009.9 1010.0 0.0
16/09:00pm 4.5 0.8 2.5 87 0.8 WNW 11 11 6 6 1009.6 1009.7 0.0
16/08:30pm 5.5 1.6 3.3 86 0.9 W 13 17 7 9 1009.6 1009.7 0.0
16/08:00pm 5.4 1.8 3.1 85 1.0 W 11 13 6 7 1009.3 1009.4 0.0
16/07:30pm 6.5 3.0 3.5 81 1.3 WNW 11 15 6 8 1009.1 1009.2 0.0
16/07:00pm 7.0 2.8 4.0 81 1.3 W 15 20 8 11 1008.8 1008.9 0.0
16/06:30pm 7.2 3.4 4.0 80 1.4 WNW 13 17 7 9 1008.6 1008.7 0.0
16/06:00pm 7.4 3.2 4.0 79 1.5 WNW 15 19 8 10 1008.3 1008.4 0.0
16/05:30pm 8.5 3.4 4.3 75 1.8 W 20 28 11 15 1008.0 1008.1 0.0
16/05:00pm 9.4 4.4 4.8 73 2.1 W 20 28 11 15 1007.6 1007.7 0.0
16/04:30pm 10.0 2.8 4.8 70 2.3 WSW 32 44 17 24 1007.5 1007.6 0.0
16/04:00pm 10.6 3.7 4.5 66 2.7 W 30 46 16 25 1007.1 1007.2 0.0
16/03:30pm 10.4 2.5 4.1 65 2.8 WSW 35 50 19 27 1007.1 1007.2 0.0
16/03:17pm 11.4 4.1 4.4 62 3.2 WSW 32 54 17 29 1006.8 1006.9 0.0
16/03:00pm 11.4 2.9 2.9 56 3.7 WSW 37 50 20 27 1006.4 1006.5 0.0
16/02:42pm 12.7 4.8 4.4 57 3.8 WSW 35 54 19 29 1006.2 1006.3 0.0
16/02:30pm 12.1 4.6 3.6 56 3.8 WSW 32 48 17 26 1006.1 1006.2 0.0
16/02:04pm 13.0 4.7 4.4 56 3.9 W 37 56 20 30 1005.8 1005.9 0.0
16/02:00pm 12.5 3.6 2.9 52 4.2 W 39 56 21 30 1005.8 1005.9 0.0
16/01:37pm 12.3 4.2 3.0 53 4.1 W 35 54 19 29 1005.8 1005.9 0.0
16/01:30pm 12.6 5.0 4.1 56 3.8 W 33 50 18 27 1005.8 1005.9 0.0
16/01:04pm 12.5 5.0 4.2 57 3.8 W 33 63 18 34 1005.9 1006.0 0.0
16/01:00pm 12.8 5.1 5.2 60 3.5 W 35 46 19 25 1005.9 1006.0 0.0
16/12:36pm 11.0 3.0 3.8 61 3.2 W 35 54 19 29 1006.1 1006.2 0.0
16/12:30pm 11.0 2.3 4.0 62 3.1 W 39 54 21 29 1005.9 1006.0 0.0
16/12:21pm 11.3 3.7 2.9 56 3.7 WSW 32 50 17 27 1005.9 1006.0 0.0
16/12:00pm 12.4 5.0 4.9 60 3.5 W 33 50 18 27 1006.1 1006.2 0.0
16/11:36am 11.6 4.3 4.6 62 3.2 WSW 32 50 17 27 1006.2 1006.3 0.0
16/11:30am 12.0 4.7 5.6 65 3.0 WSW 33 46 18 25 1006.1 1006.2 0.0
16/11:00am 11.3 3.1 5.0 65 2.9 W 37 50 20 27 1005.8 1005.9 0.0
16/10:30am 11.9 5.5 7.0 72 2.3 WSW 30 43 16 23 1005.7 1005.8 0.0
16/10:00am 10.4 3.2 5.2 70 2.4 W 32 50 17 27 1005.3 1005.4 0.0
16/09:55am 10.3 3.1 5.1 70 2.4 W 32 50 17 27 1005.3 1005.4 0.0
16/09:30am 10.0 3.3 5.4 73 2.1 W 30 39 16 21 1005.3 1005.4 0.0
16/09:00am 9.3 2.9 5.1 75 1.9 W 28 46 15 25 1005.2 1005.3 10.0
16/08:58am 9.2 2.8 5.0 75 1.9 W 28 46 15 25 1005.1 1005.2 10.0
16/08:30am 8.8 3.3 5.9 82 1.3 W 24 32 13 17 1005.2 1005.3 10.0
16/08:00am 7.9 1.9 5.2 83 1.2 W 26 35 14 19 1004.6 1004.7 10.0
16/07:30am 7.3 2.4 5.1 86 1.0 W 20 26 11 14 1004.3 1004.4 10.0
16/07:00am 7.2 2.5 5.3 88 0.8 W 19 22 10 12 1003.9 1004.0 10.0
16/06:30am 7.5 2.7 5.5 87 0.9 W 20 24 11 13 1003.7 1003.8 10.0
16/06:00am 7.5 2.6 5.3 86 1.0 W 20 28 11 15 1003.1 1003.2 10.0
16/05:30am 7.7 3.0 5.3 85 1.1 W 19 22 10 12 1003.0 1003.1 9.8
16/05:00am 8.2 2.2 5.5 83 1.2 W 26 37 14 20 1002.5 1002.6 9.8
16/04:30am 7.4 2.8 5.4 87 0.9 W 19 22 10 12 1002.1 1002.2 9.8
16/04:00am 7.7 2.9 5.7 87 0.9 WNW 20 26 11 14 1001.8 1001.9 9.8
16/03:30am 7.5 3.3 5.5 87 0.9 W 17 19 9 10 1001.7 1001.7 9.8
16/03:00am 8.1 3.4 5.9 86 1.0 W 20 24 11 13 1001.5 1001.5 9.8
16/02:30am 8.5 3.0 5.8 83 1.2 W 24 32 13 17 1001.4 1001.4 9.8
16/02:00am 8.8 3.8 6.4 85 1.1 W 22 32 12 17 1001.2 1001.2 9.8
16/01:30am 8.7 4.0 6.2 84 1.1 W 20 28 11 15 1000.7 1000.7 9.8
16/01:00am 8.6 4.0 6.4 86 1.0 W 20 28 11 15 1000.4 1000.4 9.8
16/12:30am 8.8 3.8 6.6 86 1.0 W 22 32 12 17 999.6 999.6 9.8
16/12:03am 8.8 4.3 6.9 88 0.9 W 20 28 11 15 999.6 999.6 9.8
16/12:00am 8.7 4.2 6.8 88 0.9 W 20 28 11 15 999.7 999.7 9.8
 
Date/Time
EST
Temp
°C
App
Temp
°C
Dew
Point
°C
Rel
Hum
%
Delta-T
°C
Wind Press
QNH
hPa
Press
MSL
hPa
Rain since
9am
mm
Dir  Spd
km/h
Gust
km/h
Spd
kts
Gust
kts
15/11:46pm 9.0 4.5 7.1 88 0.9 W 20 32 11 17 999.6 999.6 9.8
15/11:30pm 8.8 4.5 6.8 87 0.9 WNW 19 26 10 14 999.6 999.6 9.4
15/11:00pm 8.5 4.1 6.5 87 0.9 W 19 28 10 15 999.1 999.1 9.4
15/10:45pm 8.6 2.4 6.2 85 1.1 W 28 39 15 21 999.2 999.2 9.4
15/10:31pm 9.1 3.0 6.7 85 1.1 W 28 39 15 21 999.1 999.1 9.4
15/10:30pm 9.1 3.4 6.9 86 1.0 W 26 35 14 19 999.1 999.1 9.2
15/10:00pm 8.9 3.5 6.5 85 1.1 W 24 35 13 19 998.5 998.5 8.8
15/09:30pm 8.4 3.7 6.0 85 1.1 WNW 20 32 11 17 998.4 998.4 8.8
15/09:00pm 8.6 2.8 6.2 85 1.1 WNW 26 35 14 19 998.2 998.2 8.8
15/08:30pm 8.4 3.4 6.5 88 0.9 WNW 22 30 12 16 998.3 998.3 8.8
15/08:26pm 8.3 3.3 6.4 88 0.9 W 22 30 12 16 998.4 998.4 8.8
15/08:00pm 8.6 1.5 6.4 86 1.0 W 33 48 18 26 998.4 998.4 8.0
15/07:39pm 8.7 3.8 6.7 87 0.9 WNW 22 44 12 24 998.0 998.0 6.8
15/07:30pm 8.4 4.7 6.5 88 0.9 WNW 15 19 8 10 998.1 998.1 6.4
15/07:00pm 8.3 3.8 6.3 87 0.9 WNW 19 22 10 12 997.5 997.5 6.4
15/06:30pm 8.1 3.4 5.9 86 1.0 WNW 20 37 11 20 997.4 997.4 6.2
15/06:00pm 7.7 3.9 5.7 87 0.9 WNW 15 20 8 11 997.3 997.3 5.8
15/05:30pm 7.2 2.4 5.5 89 0.8 WNW 20 24 11 13 997.1 997.1 5.8
15/05:00pm 7.7 0.7 6.2 90 0.7 W 32 41 17 22 996.8 996.8 5.8
15/04:47pm 7.9 -2.1 6.0 88 0.9 WNW 48 67 26 36 997.0 997.0 5.6
15/04:40pm 8.4 -0.4 5.7 83 1.2 WNW 41 65 22 35 996.8 996.8 5.2
15/04:36pm 8.9 2.3 6.2 83 1.2 WNW 30 50 16 27 996.7 996.7 4.8
15/04:30pm 8.7 3.2 6.0 83 1.2 W 24 37 13 20 996.5 996.5 4.8
15/04:15pm 8.5 2.2 5.6 82 1.3 WNW 28 37 15 20 996.3 996.3 4.6
15/04:04pm 8.7 2.0 5.4 80 1.5 W 30 57 16 31 996.1 996.1 4.6
15/04:00pm 8.8 2.6 6.1 83 1.2 W 28 43 15 23 996.2 996.2 4.4
15/03:30pm 10.2 3.1 6.4 77 1.8 W 33 44 18 24 996.1 996.1 3.4
15/03:18pm 9.5 2.9 6.0 79 1.6 WNW 30 56 16 30 995.9 995.9 3.4
15/03:00pm 9.6 3.5 6.7 82 1.4 W 28 39 15 21 995.9 995.9 3.2
15/02:43pm 9.0 1.0 5.9 81 1.4 W 37 59 20 32 996.1 996.1 3.2
15/02:41pm 9.2 1.2 5.9 80 1.5 W 37 59 20 32 996.1 996.1 2.8
15/02:30pm 9.3 1.1 6.6 83 1.3 W 39 54 21 29 995.7 995.7 2.8
15/02:27pm 9.2 0.9 6.1 81 1.4 WNW 39 54 21 29 995.7 995.7 2.6
15/02:00pm 10.5 4.1 7.0 79 1.7 W 30 48 16 26 995.3 995.3 2.4
15/01:30pm 10.0 3.0 6.7 80 1.5 W 33 48 18 26 995.1 995.1 2.4
15/01:26pm 10.1 3.4 7.3 83 1.3 W 32 43 17 23 995.2 995.2 2.4
15/01:04pm 9.2 2.1 6.3 82 1.3 W 33 61 18 33 995.0 995.0 1.8
15/01:02pm 9.6 3.1 6.7 82 1.4 W 30 61 16 33 995.2 995.2 1.6
15/01:00pm 10.2 3.9 7.4 83 1.3 W 30 41 16 22 995.0 995.0 1.6
15/12:54pm 10.5 3.8 8.3 86 1.1 W 33 57 18 31 994.8 994.8 1.6
15/12:37pm 9.3 1.0 5.9 79 1.6 W 39 59 21 32 994.6 994.6 1.4
15/12:36pm 9.4 1.0 5.8 78 1.6 W 39 59 21 32 994.6 994.6 1.2
15/12:30pm 10.4 1.3 6.0 74 2.0 W 43 54 23 29 994.5 994.5 0.4
15/12:03pm 10.8 2.4 7.3 79 1.7 WNW 41 61 22 33 994.0 994.0 0.4
15/12:00pm 10.6 2.1 7.1 79 1.7 WNW 41 59 22 32 994.0 994.0 0.4
15/11:51am 10.6 0.5 7.5 81 1.5 WNW 50 72 27 39 994.1 994.1 0.4
15/11:30am 11.7 2.1 6.2 69 2.6 WNW 46 74 25 40 993.7 993.7 0.4
15/11:00am 12.1 2.6 6.6 69 2.6 WNW 46 74 25 40 993.5 993.5 0.4
15/10:31am 11.0 1.8 6.4 73 2.2 WNW 44 70 24 38 993.4 993.4 0.4
15/10:30am 11.0 1.8 6.4 73 2.2 WNW 44 57 24 31 993.4 993.4 0.4
15/10:00am 11.8 2.7 6.1 68 2.7 WNW 43 61 23 33 993.1 993.1 0.0
15/09:39am 10.6 3.1 6.4 75 2.0 WNW 35 59 19 32 993.4 993.4 0.0
15/09:30am 9.9 2.9 6.8 81 1.5 WNW 33 46 18 25 993.5 993.5 0.0
15/09:14am 8.6 0.7 6.4 86 1.0 W 37 52 20 28 993.6 993.6 0.0
15/09:08am 8.1 -1.0 6.1 87 0.9 W 43 69 23 37 993.7 993.7 0.0
15/09:00am 7.7 -4.0 6.0 89 0.8 W 57 107 31 58 993.7 993.7 5.0
15/08:54am 7.7 -4.1 4.8 82 1.3 W 56 107 30 58 993.4 993.4 4.6
15/08:52am 10.7 -0.1 5.9 72 2.2 WNW 52 82 28 44 993.4 993.4 3.8
15/08:47am 11.5 2.8 5.8 68 2.7 NW 41 72 22 39 992.3 992.3 3.8
15/08:30am 10.9 3.6 5.4 69 2.5 WNW 33 54 18 29 992.7 992.7 3.8
15/08:12am 10.3 4.0 5.5 72 2.2 WNW 28 46 15 25 993.0 993.0 3.8
15/08:00am 9.6 3.3 5.6 76 1.8 WNW 28 41 15 22 993.1 993.1 3.8

Other Formats:

Comma delimited format used in spreadsheet applications
http://www.bom.gov.au/fwo/IDT60801/IDT60801.95957.axf

JavaScript Object Notation format (JSON) in row-major order
http://www.bom.gov.au/fwo/IDT60801/IDT60801.95957.json